createdAt,value
2022-12-20T06:02:54.079Z,14.60
2022-12-20T06:07:58.427Z,14.50
2022-12-20T06:18:08.881Z,14.60
2022-12-20T06:33:28.132Z,14.60
2022-12-20T06:48:41.742Z,14.60
2022-12-20T07:03:56.233Z,14.70
2022-12-20T07:19:12.030Z,14.70
2022-12-20T07:24:15.710Z,14.70
2022-12-20T07:34:24.966Z,14.70
2022-12-20T07:44:33.731Z,14.60
2022-12-20T07:49:38.795Z,14.70
2022-12-20T07:54:47.349Z,14.60
2022-12-20T07:59:55.518Z,14.70
2022-12-20T08:05:01.095Z,14.60
2022-12-20T08:10:06.628Z,14.60
2022-12-20T08:15:11.035Z,14.60
2022-12-20T08:20:16.667Z,14.60
2022-12-20T08:25:21.716Z,14.60
2022-12-20T08:30:25.466Z,14.60
2022-12-20T08:35:30.571Z,14.60
2022-12-20T08:50:43.922Z,14.50
2022-12-20T09:00:51.786Z,14.50
2022-12-20T09:05:57.024Z,14.60
2022-12-20T09:11:06.140Z,14.50
2022-12-20T09:21:15.374Z,14.50
2022-12-20T09:26:20.084Z,14.50
2022-12-20T09:31:24.701Z,14.50
2022-12-20T09:36:30.925Z,14.30
2022-12-20T09:41:37.362Z,14.30
2022-12-20T09:46:42.421Z,14.20
2022-12-20T09:52:08.429Z,14.20
2022-12-20T09:57:19.793Z,14.00
2022-12-20T10:02:55.585Z,14.00
2022-12-20T10:07:56.695Z,13.90
2022-12-20T10:13:12.007Z,13.90
2022-12-20T10:18:33.678Z,13.90
2022-12-20T10:23:45.115Z,13.90
2022-12-20T10:39:05.770Z,13.90
2022-12-20T10:44:20.811Z,13.90
2022-12-20T10:49:31.643Z,13.90
2022-12-20T10:54:38.931Z,13.90
2022-12-20T10:59:45.306Z,13.90
2022-12-20T11:04:59.032Z,14.00
2022-12-20T11:10:18.296Z,14.00
2022-12-20T11:15:29.508Z,14.00
2022-12-20T11:20:43.921Z,14.00
2022-12-20T11:26:15.722Z,14.00
2022-12-20T11:31:27.593Z,14.00
2022-12-20T11:36:40.784Z,14.10
2022-12-20T11:41:56.819Z,14.10
2022-12-20T11:47:18.595Z,14.10
2022-12-20T11:52:30.154Z,14.00
2022-12-20T11:58:02.111Z,14.10
2022-12-20T12:03:14.320Z,14.10
2022-12-20T12:08:22.385Z,14.20
2022-12-20T12:13:30.291Z,14.20
2022-12-20T12:18:35.368Z,14.20
2022-12-20T12:23:47.441Z,14.20
2022-12-20T12:28:56.020Z,14.30
2022-12-20T12:34:10.221Z,14.30
2022-12-20T12:39:39.300Z,14.30
2022-12-20T12:44:52.332Z,14.40
2022-12-20T12:49:57.488Z,14.40
2022-12-20T13:00:48.347Z,14.40
2022-12-20T13:11:02.314Z,14.50
2022-12-20T13:16:12.564Z,14.50
2022-12-20T13:21:19.934Z,14.50
2022-12-20T13:26:51.135Z,14.60
2022-12-20T13:31:56.358Z,14.50
2022-12-20T13:37:00.696Z,14.60
2022-12-20T13:42:34.077Z,14.70
2022-12-20T13:47:46.981Z,14.70
2022-12-20T13:57:55.855Z,14.50
2022-12-20T14:03:01.812Z,14.30
2022-12-20T14:08:09.634Z,14.00
2022-12-20T14:13:22.967Z,14.00
2022-12-20T14:18:28.349Z,13.80
2022-12-20T14:23:37.716Z,13.70
2022-12-20T14:28:44.397Z,13.70
2022-12-20T14:33:50.502Z,13.60
2022-12-20T14:38:54.985Z,13.60
2022-12-20T14:44:02.066Z,13.60
2022-12-20T14:49:26.078Z,13.60
2022-12-20T14:55:06.431Z,13.60
2022-12-20T15:00:11.555Z,13.50
2022-12-20T15:05:49.242Z,13.50
2022-12-20T15:10:55.923Z,13.50
2022-12-20T15:16:05.640Z,13.40
2022-12-20T15:21:16.234Z,13.40
2022-12-20T15:26:21.848Z,13.30
2022-12-20T15:31:33.383Z,13.30
2022-12-20T15:36:39.943Z,13.30
2022-12-20T15:41:47.880Z,13.30
2022-12-20T15:46:52.539Z,13.30
2022-12-20T15:51:59.339Z,13.30
2022-12-20T15:57:07.709Z,13.30
2022-12-20T16:02:22.330Z,13.30
2022-12-20T16:07:27.988Z,13.30
2022-12-20T16:12:35.872Z,13.40
2022-12-20T16:22:45.427Z,13.30
2022-12-20T16:27:49.135Z,13.40
2022-12-20T16:32:53.341Z,13.40
2022-12-20T16:38:00.058Z,13.40
2022-12-20T16:48:08.148Z,13.30
2022-12-20T16:53:16.736Z,13.40
2022-12-20T16:58:20.566Z,13.30
2022-12-20T17:03:24.358Z,13.30
2022-12-20T17:13:53.466Z,13.10
2022-12-20T17:18:59.824Z,13.10
2022-12-20T17:24:07.043Z,13.10
2022-12-20T17:34:18.982Z,13.10
2022-12-20T17:39:26.001Z,13.00
2022-12-20T17:49:34.078Z,12.90
2022-12-20T17:54:40.428Z,12.80
2022-12-20T18:09:54.151Z,12.40
2022-12-20T18:20:01.887Z,12.40
2022-12-20T18:25:08.729Z,12.30
2022-12-20T18:30:13.517Z,12.20
2022-12-20T18:40:22.645Z,12.10
2022-12-20T18:50:37.262Z,12.00
2022-12-20T18:55:42.399Z,11.90
2022-12-20T19:05:53.161Z,11.90
2022-12-20T19:11:01.305Z,11.90
2022-12-20T19:16:08.667Z,11.90
2022-12-20T19:21:14.536Z,12.00
2022-12-20T19:26:21.515Z,12.00
2022-12-20T19:31:27.341Z,12.00
2022-12-20T19:36:32.955Z,12.00
2022-12-20T19:41:38.029Z,12.00
2022-12-20T19:46:41.953Z,12.00
2022-12-20T19:51:45.750Z,12.00
2022-12-20T19:56:50.860Z,12.00
2022-12-20T20:01:54.655Z,12.00
2022-12-20T20:06:58.441Z,11.90
2022-12-20T20:12:03.628Z,11.90
2022-12-20T20:17:07.455Z,11.90
2022-12-20T20:22:11.724Z,11.80
2022-12-20T20:27:16.800Z,11.70
2022-12-20T20:32:20.476Z,11.60
2022-12-20T20:37:24.287Z,11.60
2022-12-20T20:42:29.313Z,11.50
2022-12-20T20:52:36.956Z,11.40
2022-12-20T20:57:42.119Z,11.40
2022-12-20T21:07:50.177Z,11.40
2022-12-20T21:12:55.753Z,11.40
2022-12-20T21:23:03.550Z,11.40
2022-12-20T21:28:09.434Z,11.50
2022-12-20T21:33:13.069Z,11.60
2022-12-20T21:38:16.726Z,11.60
2022-12-20T21:43:21.789Z,11.70
2022-12-20T21:48:26.358Z,11.60
2022-12-20T21:53:29.923Z,11.50
2022-12-20T21:58:35.034Z,11.50
2022-12-20T22:03:39.442Z,11.40
2022-12-20T22:08:43.130Z,11.50
2022-12-20T22:13:48.487Z,11.50
2022-12-20T22:18:53.818Z,11.50
2022-12-20T22:29:05.552Z,11.60
2022-12-20T22:34:09.314Z,11.60
2022-12-20T22:39:14.366Z,11.60
2022-12-20T22:44:19.625Z,11.60
2022-12-20T22:49:23.218Z,11.60
2022-12-20T22:54:27.111Z,11.60
2022-12-20T22:59:32.555Z,11.60
2022-12-20T23:15:04.446Z,11.20
2022-12-20T23:20:26.847Z,11.10
